sensor_id;sensor_type;location;lat;lon;timestamp;P1;durP1;ratioP1;P2;durP2;ratioP2
12776;SDS011;6452;41.572;23.732;2024-02-15T00:02:04;2.90;;;2.80;;
12776;SDS011;6452;41.572;23.732;2024-02-15T00:04:30;3.45;;;3.15;;
12776;SDS011;6452;41.572;23.732;2024-02-15T00:06:57;3.33;;;3.10;;
12776;SDS011;6452;41.572;23.732;2024-02-15T00:09:23;3.70;;;3.40;;
12776;SDS011;6452;41.572;23.732;2024-02-15T00:11:49;3.13;;;2.90;;
12776;SDS011;6452;41.572;23.732;2024-02-15T00:14:15;3.45;;;3.20;;
12776;SDS011;6452;41.572;23.732;2024-02-15T00:16:42;4.40;;;3.20;;
12776;SDS011;6452;41.572;23.732;2024-02-15T00:19:08;4.10;;;3.80;;
12776;SDS011;6452;41.572;23.732;2024-02-15T00:21:34;8.00;;;5.10;;
12776;SDS011;6452;41.572;23.732;2024-02-15T00:24:01;7.03;;;4.45;;
12776;SDS011;6452;41.572;23.732;2024-02-15T00:26:27;5.50;;;4.10;;
12776;SDS011;6452;41.572;23.732;2024-02-15T00:28:53;4.53;;;3.92;;
12776;SDS011;6452;41.572;23.732;2024-02-15T00:31:20;3.35;;;3.15;;
12776;SDS011;6452;41.572;23.732;2024-02-15T00:33:46;3.38;;;3.08;;
12776;SDS011;6452;41.572;23.732;2024-02-15T00:36:12;3.85;;;3.60;;
12776;SDS011;6452;41.572;23.732;2024-02-15T00:38:40;4.38;;;3.45;;
12776;SDS011;6452;41.572;23.732;2024-02-15T00:41:08;3.60;;;3.35;;
12776;SDS011;6452;41.572;23.732;2024-02-15T00:43:35;3.70;;;3.38;;
12776;SDS011;6452;41.572;23.732;2024-02-15T00:46:01;3.58;;;3.28;;
12776;SDS011;6452;41.572;23.732;2024-02-15T00:48:28;3.40;;;3.20;;
12776;SDS011;6452;41.572;23.732;2024-02-15T00:50:58;3.38;;;3.17;;
12776;SDS011;6452;41.572;23.732;2024-02-15T00:53:24;3.58;;;3.28;;
12776;SDS011;6452;41.572;23.732;2024-02-15T00:55:51;3.33;;;3.13;;
12776;SDS011;6452;41.572;23.732;2024-02-15T00:58:17;3.65;;;3.15;;
12776;SDS011;6452;41.572;23.732;2024-02-15T01:00:43;3.78;;;3.47;;
12776;SDS011;6452;41.572;23.732;2024-02-15T01:03:09;3.60;;;3.30;;
12776;SDS011;6452;41.572;23.732;2024-02-15T01:05:35;3.63;;;3.42;;
12776;SDS011;6452;41.572;23.732;2024-02-15T01:08:01;3.42;;;3.13;;
12776;SDS011;6452;41.572;23.732;2024-02-15T01:10:27;3.65;;;3.35;;
12776;SDS011;6452;41.572;23.732;2024-02-15T01:12:53;3.28;;;3.08;;
12776;SDS011;6452;41.572;23.732;2024-02-15T01:15:20;4.90;;;3.83;;
12776;SDS011;6452;41.572;23.732;2024-02-15T01:17:46;4.80;;;4.15;;
12776;SDS011;6452;41.572;23.732;2024-02-15T01:20:12;4.03;;;3.72;;
12776;SDS011;6452;41.572;23.732;2024-02-15T01:22:38;5.55;;;4.95;;
12776;SDS011;6452;41.572;23.732;2024-02-15T01:25:04;11.90;;;8.90;;
12776;SDS011;6452;41.572;23.732;2024-02-15T01:27:32;11.25;;;7.85;;
12776;SDS011;6452;41.572;23.732;2024-02-15T01:29:59;10.65;;;8.43;;
12776;SDS011;6452;41.572;23.732;2024-02-15T01:32:25;9.52;;;8.00;;
12776;SDS011;6452;41.572;23.732;2024-02-15T01:34:52;9.05;;;7.88;;
12776;SDS011;6452;41.572;23.732;2024-02-15T01:37:20;8.55;;;7.75;;
12776;SDS011;6452;41.572;23.732;2024-02-15T01:39:46;8.00;;;6.50;;
12776;SDS011;6452;41.572;23.732;2024-02-15T01:42:12;9.50;;;6.70;;
12776;SDS011;6452;41.572;23.732;2024-02-15T01:44:40;7.15;;;6.38;;
12776;SDS011;6452;41.572;23.732;2024-02-15T01:47:06;8.00;;;6.45;;
12776;SDS011;6452;41.572;23.732;2024-02-15T01:49:32;7.65;;;6.20;;
12776;SDS011;6452;41.572;23.732;2024-02-15T01:51:58;5.30;;;4.75;;
12776;SDS011;6452;41.572;23.732;2024-02-15T01:54:26;5.35;;;4.85;;
12776;SDS011;6452;41.572;23.732;2024-02-15T01:56:53;5.95;;;5.38;;
12776;SDS011;6452;41.572;23.732;2024-02-15T01:59:19;5.43;;;4.93;;
12776;SDS011;6452;41.572;23.732;2024-02-15T02:01:48;6.18;;;5.57;;
12776;SDS011;6452;41.572;23.732;2024-02-15T02:04:14;7.40;;;6.53;;
12776;SDS011;6452;41.572;23.732;2024-02-15T02:06:41;8.95;;;6.93;;
12776;SDS011;6452;41.572;23.732;2024-02-15T02:09:11;8.40;;;7.35;;
12776;SDS011;6452;41.572;23.732;2024-02-15T02:11:46;8.43;;;7.38;;
12776;SDS011;6452;41.572;23.732;2024-02-15T02:14:12;9.07;;;8.07;;
12776;SDS011;6452;41.572;23.732;2024-02-15T02:16:38;8.98;;;8.07;;
12776;SDS011;6452;41.572;23.732;2024-02-15T02:19:05;9.40;;;7.72;;
12776;SDS011;6452;41.572;23.732;2024-02-15T02:21:35;7.65;;;6.72;;
12776;SDS011;6452;41.572;23.732;2024-02-15T02:24:02;7.15;;;6.32;;
12776;SDS011;6452;41.572;23.732;2024-02-15T02:26:28;7.03;;;6.32;;
12776;SDS011;6452;41.572;23.732;2024-02-15T02:28:55;7.00;;;6.05;;
12776;SDS011;6452;41.572;23.732;2024-02-15T02:31:21;7.22;;;6.38;;
12776;SDS011;6452;41.572;23.732;2024-02-15T02:33:50;7.07;;;5.65;;
12776;SDS011;6452;41.572;23.732;2024-02-15T02:36:36;7.32;;;5.82;;
12776;SDS011;6452;41.572;23.732;2024-02-15T02:39:02;6.47;;;5.80;;
12776;SDS011;6452;41.572;23.732;2024-02-15T02:41:28;5.57;;;5.03;;
12776;SDS011;6452;41.572;23.732;2024-02-15T02:43:56;6.60;;;5.88;;
12776;SDS011;6452;41.572;23.732;2024-02-15T02:46:24;8.45;;;5.03;;
12776;SDS011;6452;41.572;23.732;2024-02-15T02:48:49;5.35;;;4.85;;
12776;SDS011;6452;41.572;23.732;2024-02-15T02:51:15;4.72;;;4.32;;
12776;SDS011;6452;41.572;23.732;2024-02-15T02:53:41;4.90;;;4.40;;
12776;SDS011;6452;41.572;23.732;2024-02-15T02:56:07;6.13;;;5.60;;
12776;SDS011;6452;41.572;23.732;2024-02-15T02:58:34;6.68;;;6.05;;
12776;SDS011;6452;41.572;23.732;2024-02-15T03:01:01;7.03;;;6.22;;
12776;SDS011;6452;41.572;23.732;2024-02-15T03:03:27;6.50;;;5.65;;
12776;SDS011;6452;41.572;23.732;2024-02-15T03:05:53;8.52;;;6.22;;
12776;SDS011;6452;41.572;23.732;2024-02-15T03:08:22;9.50;;;6.03;;
12776;SDS011;6452;41.572;23.732;2024-02-15T03:10:49;5.60;;;5.03;;
12776;SDS011;6452;41.572;23.732;2024-02-15T03:13:17;5.75;;;4.90;;
12776;SDS011;6452;41.572;23.732;2024-02-15T03:15:47;6.25;;;5.28;;
12776;SDS011;6452;41.572;23.732;2024-02-15T03:18:16;5.43;;;4.95;;
12776;SDS011;6452;41.572;23.732;2024-02-15T03:20:42;5.45;;;4.80;;
12776;SDS011;6452;41.572;23.732;2024-02-15T03:23:09;8.48;;;6.40;;
12776;SDS011;6452;41.572;23.732;2024-02-15T03:25:35;8.18;;;6.68;;
12776;SDS011;6452;41.572;23.732;2024-02-15T03:28:02;8.45;;;6.57;;
12776;SDS011;6452;41.572;23.732;2024-02-15T03:30:30;9.25;;;6.78;;
12776;SDS011;6452;41.572;23.732;2024-02-15T03:32:56;5.78;;;5.18;;
12776;SDS011;6452;41.572;23.732;2024-02-15T03:35:24;7.63;;;5.15;;
12776;SDS011;6452;41.572;23.732;2024-02-15T03:37:50;6.20;;;5.60;;
12776;SDS011;6452;41.572;23.732;2024-02-15T03:40:16;5.80;;;4.93;;
12776;SDS011;6452;41.572;23.732;2024-02-15T03:42:43;5.22;;;4.82;;
12776;SDS011;6452;41.572;23.732;2024-02-15T03:45:09;5.10;;;4.63;;
12776;SDS011;6452;41.572;23.732;2024-02-15T03:47:36;4.72;;;4.32;;
12776;SDS011;6452;41.572;23.732;2024-02-15T03:50:03;6.05;;;4.70;;
12776;SDS011;6452;41.572;23.732;2024-02-15T03:52:28;6.25;;;5.07;;
12776;SDS011;6452;41.572;23.732;2024-02-15T03:54:58;6.78;;;5.10;;
12776;SDS011;6452;41.572;23.732;2024-02-15T03:57:28;5.90;;;5.25;;
12776;SDS011;6452;41.572;23.732;2024-02-15T03:59:54;6.75;;;5.13;;
12776;SDS011;6452;41.572;23.732;2024-02-15T04:02:22;8.20;;;6.15;;
12776;SDS011;6452;41.572;23.732;2024-02-15T04:04:52;7.85;;;7.05;;
12776;SDS011;6452;41.572;23.732;2024-02-15T04:07:20;10.07;;;8.35;;
12776;SDS011;6452;41.572;23.732;2024-02-15T04:09:46;10.75;;;7.53;;
12776;SDS011;6452;41.572;23.732;2024-02-15T04:12:12;9.65;;;8.00;;
12776;SDS011;6452;41.572;23.732;2024-02-15T04:14:45;7.45;;;6.75;;
12776;SDS011;6452;41.572;23.732;2024-02-15T04:17:12;15.48;;;12.60;;
12776;SDS011;6452;41.572;23.732;2024-02-15T04:19:47;17.33;;;13.02;;
12776;SDS011;6452;41.572;23.732;2024-02-15T04:22:13;19.77;;;13.82;;
12776;SDS011;6452;41.572;23.732;2024-02-15T04:24:42;20.52;;;15.25;;
12776;SDS011;6452;41.572;23.732;2024-02-15T04:27:08;18.92;;;14.93;;
12776;SDS011;6452;41.572;23.732;2024-02-15T04:29:37;23.45;;;16.73;;
12776;SDS011;6452;41.572;23.732;2024-02-15T04:32:07;28.67;;;19.08;;
12776;SDS011;6452;41.572;23.732;2024-02-15T04:34:34;28.60;;;18.80;;
12776;SDS011;6452;41.572;23.732;2024-02-15T04:37:00;21.13;;;14.75;;
12776;SDS011;6452;41.572;23.732;2024-02-15T04:39:35;21.33;;;14.82;;
12776;SDS011;6452;41.572;23.732;2024-02-15T04:42:17;17.30;;;12.70;;
12776;SDS011;6452;41.572;23.732;2024-02-15T04:44:44;16.67;;;12.40;;
12776;SDS011;6452;41.572;23.732;2024-02-15T04:47:09;13.30;;;10.60;;
12776;SDS011;6452;41.572;23.732;2024-02-15T04:49:35;12.65;;;9.63;;
12776;SDS011;6452;41.572;23.732;2024-02-15T04:52:21;11.45;;;9.75;;
12776;SDS011;6452;41.572;23.732;2024-02-15T04:54:49;16.98;;;11.75;;
12776;SDS011;6452;41.572;23.732;2024-02-15T04:57:15;16.48;;;13.40;;
12776;SDS011;6452;41.572;23.732;2024-02-15T04:59:42;17.95;;;13.82;;
12776;SDS011;6452;41.572;23.732;2024-02-15T05:02:12;18.90;;;13.52;;
12776;SDS011;6452;41.572;23.732;2024-02-15T05:04:42;20.90;;;13.77;;
12776;SDS011;6452;41.572;23.732;2024-02-15T05:07:10;20.88;;;14.38;;
12776;SDS011;6452;41.572;23.732;2024-02-15T05:09:36;22.65;;;16.65;;
12776;SDS011;6452;41.572;23.732;2024-02-15T05:12:01;28.58;;;20.90;;
12776;SDS011;6452;41.572;23.732;2024-02-15T05:14:28;27.17;;;20.42;;
12776;SDS011;6452;41.572;23.732;2024-02-15T05:16:54;15.77;;;12.68;;
12776;SDS011;6452;41.572;23.732;2024-02-15T05:19:20;18.42;;;12.18;;
12776;SDS011;6452;41.572;23.732;2024-02-15T05:21:46;15.02;;;11.73;;
12776;SDS011;6452;41.572;23.732;2024-02-15T05:24:15;15.30;;;13.40;;
12776;SDS011;6452;41.572;23.732;2024-02-15T05:26:43;20.92;;;15.00;;
12776;SDS011;6452;41.572;23.732;2024-02-15T05:29:10;17.58;;;14.32;;
12776;SDS011;6452;41.572;23.732;2024-02-15T05:31:36;20.02;;;14.60;;
12776;SDS011;6452;41.572;23.732;2024-02-15T05:34:04;20.80;;;13.73;;
12776;SDS011;6452;41.572;23.732;2024-02-15T05:36:32;18.92;;;13.45;;
12776;SDS011;6452;41.572;23.732;2024-02-15T05:38:59;19.45;;;13.38;;
12776;SDS011;6452;41.572;23.732;2024-02-15T05:41:25;19.83;;;14.13;;
12776;SDS011;6452;41.572;23.732;2024-02-15T05:43:51;18.23;;;14.23;;
12776;SDS011;6452;41.572;23.732;2024-02-15T05:46:20;17.48;;;13.70;;
12776;SDS011;6452;41.572;23.732;2024-02-15T05:48:46;20.20;;;16.25;;
12776;SDS011;6452;41.572;23.732;2024-02-15T05:51:13;23.27;;;16.17;;
12776;SDS011;6452;41.572;23.732;2024-02-15T05:53:38;18.35;;;14.23;;
12776;SDS011;6452;41.572;23.732;2024-02-15T05:56:05;21.77;;;16.38;;
12776;SDS011;6452;41.572;23.732;2024-02-15T05:58:31;23.17;;;18.95;;
12776;SDS011;6452;41.572;23.732;2024-02-15T06:00:58;16.67;;;14.65;;
12776;SDS011;6452;41.572;23.732;2024-02-15T06:03:30;20.52;;;16.35;;
12776;SDS011;6452;41.572;23.732;2024-02-15T06:05:58;22.05;;;17.70;;
12776;SDS011;6452;41.572;23.732;2024-02-15T06:08:24;26.42;;;16.77;;
12776;SDS011;6452;41.572;23.732;2024-02-15T06:10:50;24.08;;;15.95;;
12776;SDS011;6452;41.572;23.732;2024-02-15T06:13:18;20.08;;;14.95;;
12776;SDS011;6452;41.572;23.732;2024-02-15T06:15:44;25.30;;;16.85;;
12776;SDS011;6452;41.572;23.732;2024-02-15T06:18:14;26.13;;;18.10;;
12776;SDS011;6452;41.572;23.732;2024-02-15T06:20:41;24.73;;;17.92;;
12776;SDS011;6452;41.572;23.732;2024-02-15T06:23:08;24.05;;;18.75;;
12776;SDS011;6452;41.572;23.732;2024-02-15T06:25:37;23.45;;;19.27;;
12776;SDS011;6452;41.572;23.732;2024-02-15T06:28:02;19.88;;;16.13;;
12776;SDS011;6452;41.572;23.732;2024-02-15T06:30:41;26.92;;;20.42;;
12776;SDS011;6452;41.572;23.732;2024-02-15T06:33:25;35.45;;;23.15;;
12776;SDS011;6452;41.572;23.732;2024-02-15T06:36:23;26.13;;;19.17;;
12776;SDS011;6452;41.572;23.732;2024-02-15T06:39:08;24.15;;;18.58;;
12776;SDS011;6452;41.572;23.732;2024-02-15T06:41:51;26.42;;;17.35;;
12776;SDS011;6452;41.572;23.732;2024-02-15T06:44:18;22.05;;;16.27;;
12776;SDS011;6452;41.572;23.732;2024-02-15T06:46:45;23.05;;;17.05;;
12776;SDS011;6452;41.572;23.732;2024-02-15T06:49:11;22.85;;;16.33;;
12776;SDS011;6452;41.572;23.732;2024-02-15T06:51:38;27.40;;;19.52;;
12776;SDS011;6452;41.572;23.732;2024-02-15T06:54:05;25.85;;;18.33;;
12776;SDS011;6452;41.572;23.732;2024-02-15T06:56:35;26.15;;;19.30;;
12776;SDS011;6452;41.572;23.732;2024-02-15T06:59:01;34.88;;;21.15;;
12776;SDS011;6452;41.572;23.732;2024-02-15T07:01:27;30.98;;;20.90;;
12776;SDS011;6452;41.572;23.732;2024-02-15T07:03:53;30.80;;;20.95;;
12776;SDS011;6452;41.572;23.732;2024-02-15T07:06:21;31.25;;;20.38;;
12776;SDS011;6452;41.572;23.732;2024-02-15T07:08:47;30.38;;;19.50;;
12776;SDS011;6452;41.572;23.732;2024-02-15T07:11:16;27.00;;;20.40;;
12776;SDS011;6452;41.572;23.732;2024-02-15T07:13:41;20.63;;;15.25;;
12776;SDS011;6452;41.572;23.732;2024-02-15T07:16:08;25.88;;;16.77;;
12776;SDS011;6452;41.572;23.732;2024-02-15T07:18:35;25.17;;;17.58;;
12776;SDS011;6452;41.572;23.732;2024-02-15T07:21:01;30.00;;;21.92;;
12776;SDS011;6452;41.572;23.732;2024-02-15T07:23:29;25.85;;;19.85;;
12776;SDS011;6452;41.572;23.732;2024-02-15T07:25:55;25.30;;;19.13;;
12776;SDS011;6452;41.572;23.732;2024-02-15T07:28:21;30.50;;;19.08;;
12776;SDS011;6452;41.572;23.732;2024-02-15T07:30:48;25.63;;;18.55;;
12776;SDS011;6452;41.572;23.732;2024-02-15T07:33:16;23.73;;;17.20;;
12776;SDS011;6452;41.572;23.732;2024-02-15T07:35:43;31.88;;;18.20;;
12776;SDS011;6452;41.572;23.732;2024-02-15T07:38:10;29.40;;;17.85;;
12776;SDS011;6452;41.572;23.732;2024-02-15T07:40:36;23.33;;;16.42;;
12776;SDS011;6452;41.572;23.732;2024-02-15T07:43:05;22.15;;;15.77;;
12776;SDS011;6452;41.572;23.732;2024-02-15T07:45:31;19.08;;;14.50;;
12776;SDS011;6452;41.572;23.732;2024-02-15T07:48:01;18.17;;;12.82;;
12776;SDS011;6452;41.572;23.732;2024-02-15T07:50:30;19.42;;;13.40;;
12776;SDS011;6452;41.572;23.732;2024-02-15T07:52:56;17.85;;;13.02;;
12776;SDS011;6452;41.572;23.732;2024-02-15T07:55:21;18.80;;;14.40;;
12776;SDS011;6452;41.572;23.732;2024-02-15T07:57:52;15.43;;;13.48;;
12776;SDS011;6452;41.572;23.732;2024-02-15T08:00:18;16.60;;;13.35;;
12776;SDS011;6452;41.572;23.732;2024-02-15T08:02:45;15.88;;;13.35;;
12776;SDS011;6452;41.572;23.732;2024-02-15T08:05:11;16.85;;;12.48;;
12776;SDS011;6452;41.572;23.732;2024-02-15T08:07:41;15.60;;;11.63;;
12776;SDS011;6452;41.572;23.732;2024-02-15T08:10:08;14.25;;;11.45;;
12776;SDS011;6452;41.572;23.732;2024-02-15T08:15:06;13.05;;;9.70;;
12776;SDS011;6452;41.572;23.732;2024-02-15T08:17:37;11.70;;;10.45;;
12776;SDS011;6452;41.572;23.732;2024-02-15T08:20:05;16.13;;;11.68;;
12776;SDS011;6452;41.572;23.732;2024-02-15T08:22:33;13.90;;;11.77;;
12776;SDS011;6452;41.572;23.732;2024-02-15T08:24:59;11.82;;;9.05;;
12776;SDS011;6452;41.572;23.732;2024-02-15T08:27:25;13.32;;;9.55;;
12776;SDS011;6452;41.572;23.732;2024-02-15T08:29:51;12.45;;;9.57;;
12776;SDS011;6452;41.572;23.732;2024-02-15T08:32:17;11.45;;;9.00;;
12776;SDS011;6452;41.572;23.732;2024-02-15T08:34:44;10.25;;;9.07;;
12776;SDS011;6452;41.572;23.732;2024-02-15T08:37:10;12.95;;;9.43;;
12776;SDS011;6452;41.572;23.732;2024-02-15T08:39:36;13.00;;;10.60;;
12776;SDS011;6452;41.572;23.732;2024-02-15T08:42:03;18.92;;;14.60;;
12776;SDS011;6452;41.572;23.732;2024-02-15T08:44:29;11.50;;;10.30;;
12776;SDS011;6452;41.572;23.732;2024-02-15T08:46:56;15.73;;;11.18;;
12776;SDS011;6452;41.572;23.732;2024-02-15T08:49:22;12.88;;;10.20;;
12776;SDS011;6452;41.572;23.732;2024-02-15T08:51:48;13.10;;;11.05;;
12776;SDS011;6452;41.572;23.732;2024-02-15T08:54:14;13.63;;;9.63;;
12776;SDS011;6452;41.572;23.732;2024-02-15T08:56:40;14.07;;;9.60;;
12776;SDS011;6452;41.572;23.732;2024-02-15T08:59:06;14.98;;;10.18;;
12776;SDS011;6452;41.572;23.732;2024-02-15T09:01:32;15.32;;;10.02;;
12776;SDS011;6452;41.572;23.732;2024-02-15T09:03:59;13.52;;;10.30;;
12776;SDS011;6452;41.572;23.732;2024-02-15T09:06:25;14.35;;;10.63;;
12776;SDS011;6452;41.572;23.732;2024-02-15T09:08:52;14.05;;;9.60;;
12776;SDS011;6452;41.572;23.732;2024-02-15T09:11:18;12.50;;;8.45;;
12776;SDS011;6452;41.572;23.732;2024-02-15T09:13:44;12.73;;;9.32;;
12776;SDS011;6452;41.572;23.732;2024-02-15T09:16:10;14.55;;;9.73;;
12776;SDS011;6452;41.572;23.732;2024-02-15T09:18:37;13.57;;;9.35;;
12776;SDS011;6452;41.572;23.732;2024-02-15T09:21:06;9.52;;;8.55;;
12776;SDS011;6452;41.572;23.732;2024-02-15T09:23:32;12.63;;;9.98;;
12776;SDS011;6452;41.572;23.732;2024-02-15T09:25:58;16.15;;;9.98;;
12776;SDS011;6452;41.572;23.732;2024-02-15T09:28:24;10.48;;;9.25;;
12776;SDS011;6452;41.572;23.732;2024-02-15T09:30:50;14.90;;;10.05;;
12776;SDS011;6452;41.572;23.732;2024-02-15T09:33:19;13.00;;;10.13;;
12776;SDS011;6452;41.572;23.732;2024-02-15T09:35:45;13.40;;;9.88;;
12776;SDS011;6452;41.572;23.732;2024-02-15T09:38:12;10.07;;;9.07;;
12776;SDS011;6452;41.572;23.732;2024-02-15T09:40:39;10.90;;;9.50;;
12776;SDS011;6452;41.572;23.732;2024-02-15T09:43:06;11.52;;;9.65;;
12776;SDS011;6452;41.572;23.732;2024-02-15T09:45:32;10.90;;;9.80;;
12776;SDS011;6452;41.572;23.732;2024-02-15T09:48:02;18.77;;;13.85;;
12776;SDS011;6452;41.572;23.732;2024-02-15T09:50:30;17.90;;;14.20;;
12776;SDS011;6452;41.572;23.732;2024-02-15T09:52:58;18.20;;;13.40;;
12776;SDS011;6452;41.572;23.732;2024-02-15T09:55:27;21.35;;;15.73;;
12776;SDS011;6452;41.572;23.732;2024-02-15T09:57:54;19.70;;;15.65;;
12776;SDS011;6452;41.572;23.732;2024-02-15T10:00:20;16.40;;;12.90;;
12776;SDS011;6452;41.572;23.732;2024-02-15T10:02:48;22.23;;;14.30;;
12776;SDS011;6452;41.572;23.732;2024-02-15T10:05:16;24.67;;;14.98;;
12776;SDS011;6452;41.572;23.732;2024-02-15T10:07:43;17.42;;;13.82;;
12776;SDS011;6452;41.572;23.732;2024-02-15T10:10:21;16.95;;;13.48;;
12776;SDS011;6452;41.572;23.732;2024-02-15T10:12:52;14.85;;;12.70;;
12776;SDS011;6452;41.572;23.732;2024-02-15T10:15:30;19.48;;;11.55;;
12776;SDS011;6452;41.572;23.732;2024-02-15T10:17:57;19.27;;;13.70;;
12776;SDS011;6452;41.572;23.732;2024-02-15T10:20:24;19.55;;;13.25;;
12776;SDS011;6452;41.572;23.732;2024-02-15T10:25:26;16.92;;;11.45;;
12776;SDS011;6452;41.572;23.732;2024-02-15T10:27:52;11.32;;;10.20;;
12776;SDS011;6452;41.572;23.732;2024-02-15T10:30:27;15.32;;;12.30;;
12776;SDS011;6452;41.572;23.732;2024-02-15T10:32:55;9.00;;;6.85;;
12776;SDS011;6452;41.572;23.732;2024-02-15T10:35:23;7.95;;;5.80;;
12776;SDS011;6452;41.572;23.732;2024-02-15T10:37:49;9.00;;;7.03;;
12776;SDS011;6452;41.572;23.732;2024-02-15T10:40:18;7.95;;;6.72;;
12776;SDS011;6452;41.572;23.732;2024-02-15T10:42:46;7.32;;;6.65;;
12776;SDS011;6452;41.572;23.732;2024-02-15T10:45:12;9.07;;;6.85;;
12776;SDS011;6452;41.572;23.732;2024-02-15T10:47:39;9.13;;;7.47;;
12776;SDS011;6452;41.572;23.732;2024-02-15T10:50:06;10.63;;;8.05;;
12776;SDS011;6452;41.572;23.732;2024-02-15T10:52:33;12.68;;;7.90;;
12776;SDS011;6452;41.572;23.732;2024-02-15T10:55:03;5.63;;;5.07;;
12776;SDS011;6452;41.572;23.732;2024-02-15T10:57:33;8.82;;;5.28;;
12776;SDS011;6452;41.572;23.732;2024-02-15T11:00:03;5.85;;;5.45;;
12776;SDS011;6452;41.572;23.732;2024-02-15T11:02:42;5.03;;;3.58;;
12776;SDS011;6452;41.572;23.732;2024-02-15T11:05:09;3.03;;;2.92;;
12776;SDS011;6452;41.572;23.732;2024-02-15T11:07:35;1.50;;;1.50;;
12776;SDS011;6452;41.572;23.732;2024-02-15T11:10:02;2.00;;;1.90;;
12776;SDS011;6452;41.572;23.732;2024-02-15T11:12:33;2.10;;;2.00;;
12776;SDS011;6452;41.572;23.732;2024-02-15T11:14:59;1.48;;;1.48;;
12776;SDS011;6452;41.572;23.732;2024-02-15T11:20:09;2.03;;;1.95;;
12776;SDS011;6452;41.572;23.732;2024-02-15T11:22:37;2.10;;;2.00;;
12776;SDS011;6452;41.572;23.732;2024-02-15T11:25:03;4.10;;;2.90;;
12776;SDS011;6452;41.572;23.732;2024-02-15T11:27:37;2.00;;;1.90;;
12776;SDS011;6452;41.572;23.732;2024-02-15T11:30:07;1.80;;;1.70;;
12776;SDS011;6452;41.572;23.732;2024-02-15T11:32:41;2.63;;;2.40;;
12776;SDS011;6452;41.572;23.732;2024-02-15T11:35:13;2.10;;;2.00;;
12776;SDS011;6452;41.572;23.732;2024-02-15T11:43:06;3.17;;;1.65;;
12776;SDS011;6452;41.572;23.732;2024-02-15T11:45:32;1.55;;;1.52;;
12776;SDS011;6452;41.572;23.732;2024-02-15T11:48:02;1.50;;;1.50;;
12776;SDS011;6452;41.572;23.732;2024-02-15T11:50:28;1.42;;;1.40;;
12776;SDS011;6452;41.572;23.732;2024-02-15T11:53:06;2.13;;;2.03;;
12776;SDS011;6452;41.572;23.732;2024-02-15T11:55:49;1.92;;;1.83;;
12776;SDS011;6452;41.572;23.732;2024-02-15T11:58:16;1.50;;;1.50;;
12776;SDS011;6452;41.572;23.732;2024-02-15T12:00:49;1.92;;;1.83;;
12776;SDS011;6452;41.572;23.732;2024-02-15T12:03:34;1.50;;;1.50;;
12776;SDS011;6452;41.572;23.732;2024-02-15T12:06:18;2.60;;;2.35;;
12776;SDS011;6452;41.572;23.732;2024-02-15T12:09:02;2.38;;;1.63;;
12776;SDS011;6452;41.572;23.732;2024-02-15T12:11:46;1.40;;;1.40;;
12776;SDS011;6452;41.572;23.732;2024-02-15T12:14:30;1.60;;;1.60;;
12776;SDS011;6452;41.572;23.732;2024-02-15T12:17:14;1.63;;;1.63;;
12776;SDS011;6452;41.572;23.732;2024-02-15T12:19:59;1.40;;;1.40;;
12776;SDS011;6452;41.572;23.732;2024-02-15T12:24:55;1.42;;;1.40;;
12776;SDS011;6452;41.572;23.732;2024-02-15T12:27:21;1.50;;;1.50;;
12776;SDS011;6452;41.572;23.732;2024-02-15T12:29:53;1.60;;;1.50;;
12776;SDS011;6452;41.572;23.732;2024-02-15T12:32:24;1.67;;;1.60;;
12776;SDS011;6452;41.572;23.732;2024-02-15T12:34:50;2.00;;;1.90;;
12776;SDS011;6452;41.572;23.732;2024-02-15T12:37:20;1.63;;;1.63;;
12776;SDS011;6452;41.572;23.732;2024-02-15T12:39:49;1.20;;;1.20;;
12776;SDS011;6452;41.572;23.732;2024-02-15T12:42:18;1.65;;;1.55;;
12776;SDS011;6452;41.572;23.732;2024-02-15T12:44:50;3.03;;;1.55;;
12776;SDS011;6452;41.572;23.732;2024-02-15T12:47:20;1.38;;;1.38;;
12776;SDS011;6452;41.572;23.732;2024-02-15T12:49:47;1.42;;;1.33;;
12776;SDS011;6452;41.572;23.732;2024-02-15T12:55:07;1.15;;;1.15;;
12776;SDS011;6452;41.572;23.732;2024-02-15T12:57:34;1.42;;;1.40;;
12776;SDS011;6452;41.572;23.732;2024-02-15T13:00:01;1.90;;;1.80;;
12776;SDS011;6452;41.572;23.732;2024-02-15T13:02:35;1.60;;;1.60;;
12776;SDS011;6452;41.572;23.732;2024-02-15T13:05:03;1.30;;;1.30;;
12776;SDS011;6452;41.572;23.732;2024-02-15T13:07:30;5.03;;;4.70;;
12776;SDS011;6452;41.572;23.732;2024-02-15T13:09:56;2.10;;;2.00;;
12776;SDS011;6452;41.572;23.732;2024-02-15T13:12:22;2.40;;;2.30;;
12776;SDS011;6452;41.572;23.732;2024-02-15T13:14:49;2.10;;;2.00;;
12776;SDS011;6452;41.572;23.732;2024-02-15T13:17:17;6.53;;;3.30;;
12776;SDS011;6452;41.572;23.732;2024-02-15T13:19:46;2.00;;;1.90;;
12776;SDS011;6452;41.572;23.732;2024-02-15T13:22:14;2.05;;;1.83;;
12776;SDS011;6452;41.572;23.732;2024-02-15T13:24:41;2.15;;;1.00;;
12776;SDS011;6452;41.572;23.732;2024-02-15T13:27:10;1.20;;;1.20;;
12776;SDS011;6452;41.572;23.732;2024-02-15T13:29:38;2.92;;;2.72;;
12776;SDS011;6452;41.572;23.732;2024-02-15T13:32:05;2.83;;;2.63;;
12776;SDS011;6452;41.572;23.732;2024-02-15T13:34:31;3.88;;;3.50;;
12776;SDS011;6452;41.572;23.732;2024-02-15T13:36:58;1.42;;;1.38;;
12776;SDS011;6452;41.572;23.732;2024-02-15T13:39:27;1.52;;;1.52;;
12776;SDS011;6452;41.572;23.732;2024-02-15T13:41:58;1.55;;;1.55;;
12776;SDS011;6452;41.572;23.732;2024-02-15T13:44:25;1.00;;;1.00;;
12776;SDS011;6452;41.572;23.732;2024-02-15T13:46:50;1.20;;;1.20;;
12776;SDS011;6452;41.572;23.732;2024-02-15T13:49:16;2.20;;;2.10;;
12776;SDS011;6452;41.572;23.732;2024-02-15T13:51:43;1.38;;;1.38;;
12776;SDS011;6452;41.572;23.732;2024-02-15T13:54:09;2.17;;;2.08;;
12776;SDS011;6452;41.572;23.732;2024-02-15T13:56:35;2.00;;;1.90;;
12776;SDS011;6452;41.572;23.732;2024-02-15T13:59:01;1.50;;;1.48;;
12776;SDS011;6452;41.572;23.732;2024-02-15T14:01:28;1.27;;;1.27;;
12776;SDS011;6452;41.572;23.732;2024-02-15T14:03:54;1.65;;;1.60;;
12776;SDS011;6452;41.572;23.732;2024-02-15T14:06:21;1.42;;;1.42;;
12776;SDS011;6452;41.572;23.732;2024-02-15T14:08:47;2.83;;;2.50;;
12776;SDS011;6452;41.572;23.732;2024-02-15T14:11:13;3.58;;;3.33;;
12776;SDS011;6452;41.572;23.732;2024-02-15T14:13:40;2.47;;;2.40;;
12776;SDS011;6452;41.572;23.732;2024-02-15T14:16:06;3.15;;;2.95;;
12776;SDS011;6452;41.572;23.732;2024-02-15T14:18:33;4.95;;;3.22;;
12776;SDS011;6452;41.572;23.732;2024-02-15T14:21:00;2.03;;;2.00;;
12776;SDS011;6452;41.572;23.732;2024-02-15T14:23:26;2.55;;;2.45;;
12776;SDS011;6452;41.572;23.732;2024-02-15T14:25:53;2.80;;;2.70;;
12776;SDS011;6452;41.572;23.732;2024-02-15T14:28:19;4.00;;;3.80;;
12776;SDS011;6452;41.572;23.732;2024-02-15T14:30:45;3.63;;;3.47;;
12776;SDS011;6452;41.572;23.732;2024-02-15T14:33:29;2.80;;;2.70;;
12776;SDS011;6452;41.572;23.732;2024-02-15T14:35:55;1.70;;;1.70;;
12776;SDS011;6452;41.572;23.732;2024-02-15T14:38:22;1.45;;;1.45;;
12776;SDS011;6452;41.572;23.732;2024-02-15T14:40:49;2.30;;;1.60;;
12776;SDS011;6452;41.572;23.732;2024-02-15T14:43:19;2.55;;;2.45;;
12776;SDS011;6452;41.572;23.732;2024-02-15T14:45:46;1.70;;;1.70;;
12776;SDS011;6452;41.572;23.732;2024-02-15T14:48:13;3.20;;;3.00;;
12776;SDS011;6452;41.572;23.732;2024-02-15T14:50:39;3.72;;;3.42;;
12776;SDS011;6452;41.572;23.732;2024-02-15T14:53:05;4.13;;;3.80;;
12776;SDS011;6452;41.572;23.732;2024-02-15T14:55:51;6.68;;;5.63;;
12776;SDS011;6452;41.572;23.732;2024-02-15T14:58:18;6.32;;;4.07;;
12776;SDS011;6452;41.572;23.732;2024-02-15T15:00:45;3.42;;;3.22;;
12776;SDS011;6452;41.572;23.732;2024-02-15T15:03:11;3.97;;;3.58;;